Aeroporto :
LOGIN :

Iscrizione | Disclaimer

   EN    FR    IT 

 










Sommario :    VFR   VFR Marginale   IFR   IFR Intensivo   IFR Molto Intensivo
Visibilità : 
Base nubi : 
>= 8 km
>= 3000ft
5 / 8 km
1000 / 3000 ft
1500m / 5 km
500 / 1000 ft
800 / 1500m
200 / 500 ft
< 800m
< 200 ft
Simboli :   Temporali  Nebbia  Neve Forte  Precipitazioni Forti  Vento > 20 kt
SIGMETs :   Varie  Temporali  Ghiacco  Turbolenza  Onda orograficha  Ceneri Vulcaniche






- Altitudine del aeroporto : 184 ft
- Codice IATA : BRU


EBBR - Bruxelles

ULTIMO METAR :
  • 041620Z VRB03KT CAVOK 15/02 Q1022 NOSIG

METARs OBSOLETI :
  • 041550Z 11004KT CAVOK 15/01 Q1022 NOSIG
  • 041520Z 13006KT 060V170 CAVOK 15/01 Q1022 NOSIG
  • 041450Z 13005KT 060V190 CAVOK 15/01 Q1022 NOSIG
  • 041420Z 17004KT 070V230 CAVOK 15/00 Q1022 NOSIG
  • 041350Z 19006KT 150V210 CAVOK 15/01 Q1022 NOSIG
  • 041320Z 14005KT 050V190 9999 FEW047 14/00 Q1023 NOSIG

TAF TAF EBBR
Valido dal 04 a 12 ore il 05 a 18 ore UTC


041100Z 0412/0518 17005KT 9999 FEW045



MetMap, La meteo Aeronautica in un colpo d'occhio ! - Copyright ORBIFLY Dicembre 2007 - Disclaimer

ORBIFLY MET'MAP TEAM :

Programmazione e sviluppo : Alexandra Zaïnal
Concezione : Baudouin d'Aumeries
Aiuto per la programmazione : Marc-Olivier Méhu
Supporto tecnico e logistico : Manuel Goepfert
Aiuto per la traduzione : Arnaldo La Scala

Contatto : metmap@orbifly.com




FONTI E CREDITI :

   NOAA